Burkhardt, Wisconsin
Current Conditions -  °F | °C
As of 5:11 AM on Tuesday 21 Oct 2014 (Local Time) from K21D Reporting Station
Haze Haze  
Wind Chill: 32°   Ceiling: 100
Heat Index: 32°   Visibility: 0.75mi
Dew Point: 32°   Wind: 0mph
Humidity: 100%   Direction: NA
Pressure: 30.17"   Gusts: NA
Location:  44.9743°N, 92.6899°W
Report Text: K21D 211011Z AUTO 00000KT 3/4SM BR OVC001 00/00 A3017 RMK AO2
Loading
Personal Weather Stations






























Interactive Weather Map
Tropical Storm Tracking
New forecast layout! Learn more

10-Day Weather Forecast

Advertisements
Track Severe Weather on mobile